createdAt,value
2019-06-07T00:01:12.141Z,0
2019-06-07T00:02:24.033Z,0
2019-06-07T00:03:36.545Z,0
2019-06-07T00:04:48.739Z,0
2019-06-07T00:06:00.944Z,0
2019-06-07T00:07:13.142Z,0
2019-06-07T00:08:25.340Z,0
2019-06-07T00:09:37.544Z,0
2019-06-07T00:10:49.731Z,0
2019-06-07T00:12:01.930Z,0
2019-06-07T00:13:14.129Z,0
2019-06-07T00:14:26.327Z,0
2019-06-07T00:15:38.529Z,0
2019-06-07T00:16:50.737Z,0
2019-06-07T00:18:02.934Z,0
2019-06-07T00:19:15.132Z,0
2019-06-07T00:20:27.329Z,0
2019-06-07T00:21:39.522Z,0
2019-06-07T00:22:51.721Z,0
2019-06-07T00:24:03.932Z,0
2019-06-07T00:25:16.012Z,0
2019-06-07T00:26:28.320Z,0
2019-06-07T00:27:40.518Z,0
2019-06-07T00:28:52.007Z,0
2019-06-07T00:30:04.916Z,0
2019-06-07T00:31:17.109Z,0
2019-06-07T00:32:29.310Z,0
2019-06-07T00:33:41.514Z,0
2019-06-07T00:34:53.710Z,0
2019-06-07T00:36:05.910Z,0
2019-06-07T00:37:18.115Z,0
2019-06-07T00:38:30.310Z,0
2019-06-07T00:39:42.509Z,0
2019-06-07T00:40:54.708Z,0
2019-06-07T00:42:06.900Z,0
2019-06-07T00:43:19.098Z,0
2019-06-07T00:44:31.300Z,0
2019-06-07T00:45:43.500Z,0
2019-06-07T00:46:55.698Z,0
2019-06-07T00:48:07.898Z,0
2019-06-07T00:49:20.100Z,0
2019-06-07T00:50:32.299Z,0
2019-06-07T00:51:44.500Z,0
2019-06-07T00:52:56.692Z,0
2019-06-07T00:54:08.088Z,0
2019-06-07T00:55:21.088Z,0
2019-06-07T00:56:33.288Z,0
2019-06-07T00:57:45.491Z,0
2019-06-07T00:58:57.689Z,0
2019-06-07T01:00:09.088Z,0
2019-06-07T01:01:22.089Z,0
2019-06-07T01:02:34.288Z,0
2019-06-07T01:03:46.478Z,0
2019-06-07T01:04:58.688Z,0
2019-06-07T01:06:10.874Z,0
2019-06-07T01:07:23.080Z,0
2019-06-07T01:08:35.282Z,0
2019-06-07T01:09:47.481Z,0
2019-06-07T01:10:59.679Z,0
2019-06-07T01:12:11.879Z,0
2019-06-07T01:13:24.078Z,0
2019-06-07T01:14:36.277Z,0
2019-06-07T01:15:48.470Z,0
2019-06-07T01:17:00.665Z,0
2019-06-07T01:18:12.867Z,0
2019-06-07T01:19:25.064Z,0
2019-06-07T01:20:37.267Z,0
2019-06-07T01:21:49.468Z,0
2019-06-07T01:23:01.665Z,0
2019-06-07T01:24:13.867Z,0
2019-06-07T01:25:26.076Z,0
2019-06-07T01:26:38.266Z,0
2019-06-07T01:27:50.456Z,0
2019-06-07T01:29:02.654Z,0
2019-06-07T01:30:14.858Z,0
2019-06-07T01:31:27.055Z,0
2019-06-07T01:32:39.256Z,0
2019-06-07T01:33:51.455Z,0
2019-06-07T01:35:03.654Z,0
2019-06-07T01:36:15.898Z,0
2019-06-07T01:37:28.057Z,0
2019-06-07T01:38:40.257Z,0
2019-06-07T01:39:52.465Z,0
2019-06-07T01:41:04.657Z,0
2019-06-07T01:42:16.084Z,0
2019-06-07T01:43:29.004Z,0
2019-06-07T01:44:41.000Z,0
2019-06-07T01:45:53.447Z,0
2019-06-07T01:47:05.645Z,0
2019-06-07T01:48:17.847Z,0
2019-06-07T01:49:30.045Z,0
2019-06-07T01:50:42.243Z,0
2019-06-07T01:51:54.450Z,0
2019-06-07T01:53:06.633Z,0
2019-06-07T01:54:18.835Z,0
2019-06-07T01:55:31.037Z,0
2019-06-07T01:56:43.235Z,0
2019-06-07T01:57:55.451Z,0
2019-06-07T01:59:07.635Z,0
2019-06-07T02:00:19.835Z,0
2019-06-07T02:01:32.033Z,0
2019-06-07T02:02:44.024Z,0
2019-06-07T02:03:56.432Z,0
2019-06-07T02:05:08.636Z,0
2019-06-07T02:06:20.833Z,0
2019-06-07T02:07:33.040Z,0
2019-06-07T02:08:45.235Z,0
2019-06-07T02:09:57.433Z,0
2019-06-07T02:11:09.726Z,4
2019-06-07T02:12:21.836Z,4
2019-06-07T02:13:34.035Z,4
2019-06-07T02:14:46.234Z,0
2019-06-07T02:15:58.433Z,0
2019-06-07T02:17:10.063Z,4
2019-06-07T02:18:22.833Z,4
2019-06-07T02:19:35.035Z,4
2019-06-07T02:20:47.229Z,4
2019-06-07T02:21:59.435Z,4
2019-06-07T02:23:11.633Z,4
2019-06-07T02:24:23.831Z,4
2019-06-07T02:25:36.061Z,4
2019-06-07T02:26:48.229Z,8
2019-06-07T02:28:00.444Z,4
2019-06-07T02:29:12.635Z,8
2019-06-07T02:30:24.841Z,4
2019-06-07T02:31:37.040Z,8
2019-06-07T02:32:49.241Z,12
2019-06-07T02:34:01.439Z,8
2019-06-07T02:35:13.644Z,12
2019-06-07T02:36:25.842Z,12
2019-06-07T02:37:38.046Z,12
2019-06-07T02:38:50.244Z,16
2019-06-07T02:40:02.440Z,16
2019-06-07T02:41:14.641Z,16
2019-06-07T02:42:26.844Z,20
2019-06-07T02:43:39.043Z,20
2019-06-07T02:44:51.239Z,24
2019-06-07T02:46:03.043Z,28
2019-06-07T02:47:15.641Z,28
2019-06-07T02:48:27.084Z,28
2019-06-07T02:49:40.037Z,28
2019-06-07T02:50:52.240Z,36
2019-06-07T02:52:04.450Z,36
2019-06-07T02:53:16.649Z,36
2019-06-07T02:54:28.852Z,40
2019-06-07T02:55:41.051Z,40
2019-06-07T02:56:53.253Z,44
2019-06-07T02:58:05.452Z,48
2019-06-07T02:59:17.651Z,52
2019-06-07T03:00:29.085Z,48
2019-06-07T03:01:42.047Z,52
2019-06-07T03:02:54.250Z,52
2019-06-07T03:04:06.450Z,56
2019-06-07T03:05:18.658Z,60
2019-06-07T03:06:30.848Z,60
2019-06-07T03:07:43.050Z,68
2019-06-07T03:08:55.246Z,68
2019-06-07T03:10:07.450Z,76
2019-06-07T03:11:19.650Z,80
2019-06-07T03:12:31.848Z,80
2019-06-07T03:13:44.058Z,88
2019-06-07T03:14:56.258Z,92
2019-06-07T03:16:08.461Z,96
2019-06-07T03:17:20.658Z,104
2019-06-07T03:18:32.085Z,112
2019-06-07T03:19:45.059Z,124
2019-06-07T03:20:57.260Z,144
2019-06-07T03:22:09.458Z,164
2019-06-07T03:23:21.658Z,184
2019-06-07T03:24:33.856Z,184
2019-06-07T03:25:46.058Z,176
2019-06-07T03:26:58.258Z,168
2019-06-07T03:28:10.458Z,164
2019-06-07T03:29:22.658Z,172
2019-06-07T03:30:34.866Z,192
2019-06-07T03:31:47.094Z,200
2019-06-07T03:32:59.268Z,216
2019-06-07T03:34:11.046Z,232
2019-06-07T03:35:23.669Z,244
2019-06-07T03:36:35.866Z,248
2019-06-07T03:37:48.006Z,240
2019-06-07T03:39:00.270Z,244
2019-06-07T03:40:12.464Z,248
2019-06-07T03:41:24.666Z,244
2019-06-07T03:42:36.893Z,256
2019-06-07T03:43:49.067Z,264
2019-06-07T03:45:01.266Z,260
2019-06-07T03:46:13.468Z,260
2019-06-07T03:47:25.674Z,276
2019-06-07T03:48:37.877Z,308
2019-06-07T03:49:50.080Z,344
2019-06-07T03:51:02.277Z,372
2019-06-07T03:52:14.047Z,384
2019-06-07T03:53:26.676Z,392
2019-06-07T03:54:38.880Z,404
2019-06-07T03:55:51.076Z,420
2019-06-07T03:57:03.277Z,448
2019-06-07T03:58:15.475Z,468
2019-06-07T03:59:27.679Z,496
2019-06-07T04:00:39.872Z,540
2019-06-07T04:01:52.079Z,580
2019-06-07T04:03:04.278Z,632
2019-06-07T04:04:16.048Z,676
2019-06-07T04:05:28.686Z,720
2019-06-07T04:06:41.000Z,744
2019-06-07T04:07:53.084Z,764
2019-06-07T04:09:05.286Z,772
2019-06-07T04:10:17.490Z,764
2019-06-07T04:11:29.068Z,752
2019-06-07T04:12:41.885Z,744
2019-06-07T04:13:54.084Z,724
2019-06-07T04:15:06.283Z,692
2019-06-07T04:16:18.487Z,660
2019-06-07T04:17:30.687Z,628
2019-06-07T04:18:42.894Z,604
2019-06-07T04:19:55.092Z,588
2019-06-07T04:21:07.296Z,588
2019-06-07T04:22:19.492Z,584
2019-06-07T04:23:31.690Z,596
2019-06-07T04:24:43.895Z,624
2019-06-07T04:25:56.095Z,660
2019-06-07T04:27:08.292Z,660
2019-06-07T04:28:20.492Z,652
2019-06-07T04:29:32.691Z,668
2019-06-07T04:30:44.892Z,696
2019-06-07T04:31:57.095Z,756
2019-06-07T04:33:09.290Z,808
2019-06-07T04:34:21.495Z,832
2019-06-07T04:35:33.703Z,828
2019-06-07T04:36:45.911Z,824
2019-06-07T04:37:58.105Z,856
2019-06-07T04:39:10.301Z,876
2019-06-07T04:40:22.501Z,868
2019-06-07T04:41:34.703Z,860
2019-06-07T04:42:46.903Z,888
2019-06-07T04:43:59.104Z,928
2019-06-07T04:45:11.299Z,956
2019-06-07T04:46:23.501Z,960
2019-06-07T04:47:35.701Z,972
2019-06-07T04:48:47.907Z,992
2019-06-07T04:50:00.111Z,1012
2019-06-07T04:51:12.312Z,1068
2019-06-07T04:52:24.511Z,1124
2019-06-07T04:53:36.071Z,1156
2019-06-07T04:54:48.914Z,1144
2019-06-07T04:56:01.111Z,1124
2019-06-07T04:57:13.003Z,1128
2019-06-07T04:58:25.512Z,1096
2019-06-07T04:59:37.713Z,1056
2019-06-07T05:00:49.091Z,956
2019-06-07T05:02:02.119Z,852
2019-06-07T05:03:14.326Z,776
2019-06-07T05:04:26.051Z,748
2019-06-07T05:05:38.721Z,740
2019-06-07T05:06:50.919Z,1028
2019-06-07T05:08:03.118Z,788
2019-06-07T05:09:15.325Z,812
2019-06-07T05:10:27.052Z,1200
2019-06-07T05:11:39.719Z,852
2019-06-07T05:12:51.921Z,780
2019-06-07T05:14:04.119Z,1256
2019-06-07T05:15:16.325Z,1248
2019-06-07T05:16:28.530Z,1256
2019-06-07T05:17:40.730Z,1264
2019-06-07T05:18:52.931Z,1276
2019-06-07T05:20:05.130Z,1280
2019-06-07T05:21:17.328Z,1288
2019-06-07T05:22:29.529Z,1296
2019-06-07T05:23:41.732Z,1300
2019-06-07T05:24:53.929Z,1300
2019-06-07T05:26:06.132Z,1316
2019-06-07T05:27:18.328Z,1324
2019-06-07T05:28:30.529Z,1320
2019-06-07T05:29:42.729Z,1324
2019-06-07T05:30:54.925Z,1332
2019-06-07T05:32:07.128Z,1328
2019-06-07T05:33:19.346Z,1340
2019-06-07T05:34:31.053Z,1348
2019-06-07T05:35:43.073Z,1352
2019-06-07T05:36:55.937Z,1352
2019-06-07T05:38:08.146Z,1360
2019-06-07T05:39:20.033Z,1368
2019-06-07T05:40:32.541Z,1384
2019-06-07T05:41:44.737Z,1396
2019-06-07T05:42:56.938Z,1408
2019-06-07T05:44:09.139Z,1416
2019-06-07T05:45:21.340Z,1428
2019-06-07T05:46:33.539Z,1436
2019-06-07T05:47:45.748Z,1448
2019-06-07T05:48:57.948Z,1452
2019-06-07T05:50:10.148Z,1468
2019-06-07T05:51:22.347Z,1464
2019-06-07T05:52:34.546Z,1464
2019-06-07T05:53:46.745Z,1488
2019-06-07T05:54:58.946Z,1496
2019-06-07T05:56:11.146Z,1500
2019-06-07T05:57:23.348Z,1508
2019-06-07T05:58:35.545Z,1508
2019-06-07T05:59:47.074Z,1512
2019-06-07T06:00:59.946Z,1524
2019-06-07T06:02:12.156Z,1524
2019-06-07T06:03:24.357Z,1540
2019-06-07T06:04:36.556Z,1556
2019-06-07T06:05:48.075Z,1560
2019-06-07T06:07:00.095Z,1592
2019-06-07T06:08:13.158Z,1592
2019-06-07T06:09:25.356Z,1608
2019-06-07T06:10:37.560Z,1592
2019-06-07T06:11:49.758Z,1636
2019-06-07T06:13:01.954Z,1620
2019-06-07T06:14:14.154Z,1624
2019-06-07T06:15:26.355Z,1628
2019-06-07T06:16:38.558Z,1628
2019-06-07T06:17:50.758Z,1664
2019-06-07T06:19:02.962Z,1680
2019-06-07T06:20:15.169Z,1676
2019-06-07T06:21:27.364Z,1680
2019-06-07T06:22:39.563Z,1684
2019-06-07T06:23:51.786Z,1684
2019-06-07T06:25:03.967Z,1688
2019-06-07T06:26:16.165Z,1692
2019-06-07T06:27:28.365Z,1708
2019-06-07T06:28:40.562Z,1696
2019-06-07T06:29:52.765Z,1712
2019-06-07T06:31:04.966Z,1672
2019-06-07T06:32:17.164Z,1708
2019-06-07T06:33:29.374Z,1692
2019-06-07T06:34:41.577Z,1312
2019-06-07T06:35:53.774Z,1744
2019-06-07T06:37:05.974Z,1744
2019-06-07T06:38:18.017Z,1748
2019-06-07T06:39:30.372Z,1736
2019-06-07T06:40:42.577Z,1744
2019-06-07T06:41:54.770Z,1752
2019-06-07T06:43:06.977Z,1760
2019-06-07T06:44:19.172Z,1768
2019-06-07T06:45:31.381Z,1792
2019-06-07T06:46:43.588Z,1080
2019-06-07T06:47:55.785Z,1808
2019-06-07T06:49:07.983Z,1808
2019-06-07T06:50:20.184Z,1828
2019-06-07T06:51:32.381Z,1868
2019-06-07T06:52:44.580Z,1844
2019-06-07T06:53:56.784Z,1840
2019-06-07T06:55:08.984Z,1860
2019-06-07T06:56:21.191Z,1848
2019-06-07T06:57:33.390Z,1860
2019-06-07T06:58:45.595Z,1876
2019-06-07T06:59:57.079Z,1880
2019-06-07T07:01:09.994Z,1912
2019-06-07T07:02:22.195Z,1916
2019-06-07T07:03:34.394Z,1936
2019-06-07T07:04:46.059Z,1956
2019-06-07T07:05:58.792Z,1964
2019-06-07T07:07:11.000Z,1980
2019-06-07T07:08:23.202Z,2008
2019-06-07T07:09:35.400Z,2056
2019-06-07T07:10:47.598Z,2128
2019-06-07T07:11:59.803Z,2156
2019-06-07T07:13:12.000Z,2124
2019-06-07T07:14:24.020Z,2156
2019-06-07T07:15:36.401Z,2144
2019-06-07T07:16:48.604Z,2116
2019-06-07T07:18:00.800Z,2140
2019-06-07T07:19:13.010Z,2164
2019-06-07T07:20:25.210Z,2160
2019-06-07T07:21:37.042Z,2176
2019-06-07T07:22:49.610Z,2160
2019-06-07T07:24:01.081Z,2152
2019-06-07T07:25:14.010Z,2204
2019-06-07T07:26:26.213Z,2352
2019-06-07T07:27:38.040Z,2464
2019-06-07T07:28:50.614Z,2504
2019-06-07T07:30:02.818Z,2504
2019-06-07T07:31:15.021Z,2300
2019-06-07T07:32:27.218Z,1216
2019-06-07T07:33:39.416Z,1364
2019-06-07T07:34:51.618Z,2184
2019-06-07T07:36:03.817Z,2464
2019-06-07T07:37:16.017Z,2760
2019-06-07T07:38:28.219Z,2740
2019-06-07T07:39:40.419Z,2652
2019-06-07T07:40:52.627Z,2700
2019-06-07T07:42:04.828Z,2168
2019-06-07T07:43:17.026Z,1416
2019-06-07T07:44:29.227Z,1460
2019-06-07T07:45:41.430Z,1388
2019-06-07T07:46:53.627Z,1364
2019-06-07T07:48:05.082Z,1268
2019-06-07T07:49:18.025Z,1184
2019-06-07T07:50:30.236Z,1148
2019-06-07T07:51:42.438Z,1404
2019-06-07T07:52:54.063Z,1348
2019-06-07T07:54:06.838Z,2612
2019-06-07T07:55:19.038Z,1480
2019-06-07T07:56:31.238Z,2088
2019-06-07T07:57:43.440Z,2744
2019-06-07T07:58:55.634Z,2060
2019-06-07T08:00:07.836Z,1292
2019-06-07T08:01:20.004Z,1196
2019-06-07T08:02:32.244Z,2104
2019-06-07T08:03:44.449Z,1260
2019-06-07T08:04:56.645Z,1352
2019-06-07T08:06:08.846Z,2856
2019-06-07T08:07:21.045Z,1284
2019-06-07T08:08:33.245Z,1940
2019-06-07T08:09:45.445Z,1580
2019-06-07T08:10:57.655Z,1460
2019-06-07T08:12:09.852Z,1740
2019-06-07T08:13:22.060Z,2752
2019-06-07T08:14:34.259Z,2748
2019-06-07T08:15:46.466Z,2280
2019-06-07T08:16:58.653Z,2440
2019-06-07T08:18:10.852Z,2836
2019-06-07T08:19:23.056Z,2308
2019-06-07T08:20:35.255Z,2840
2019-06-07T08:21:47.464Z,2904
2019-06-07T08:22:59.668Z,2916
2019-06-07T08:24:11.865Z,2920
2019-06-07T08:25:24.006Z,2916
2019-06-07T08:26:36.262Z,2936
2019-06-07T08:27:48.464Z,3012
2019-06-07T08:29:00.662Z,3024
2019-06-07T08:30:12.865Z,2572
2019-06-07T08:31:25.065Z,2364
2019-06-07T08:32:37.275Z,3396
2019-06-07T08:33:49.473Z,3496
2019-06-07T08:35:01.673Z,3440
2019-06-07T08:36:13.875Z,3332
2019-06-07T08:37:26.073Z,3760
2019-06-07T08:38:38.272Z,3640
2019-06-07T08:39:50.477Z,3436
2019-06-07T08:41:02.683Z,3300
2019-06-07T08:42:14.885Z,3376
2019-06-07T08:43:27.083Z,3552
2019-06-07T08:44:39.282Z,3764
2019-06-07T08:45:51.481Z,3796
2019-06-07T08:47:03.068Z,3760
2019-06-07T08:48:15.881Z,3632
2019-06-07T08:49:28.084Z,3640
2019-06-07T08:50:40.282Z,3692
2019-06-07T08:51:52.485Z,3812
2019-06-07T08:53:04.006Z,3904
2019-06-07T08:54:16.879Z,4160
2019-06-07T08:55:29.091Z,4268
2019-06-07T08:56:41.292Z,4304
2019-06-07T08:57:53.049Z,4544
2019-06-07T08:59:05.694Z,4808
2019-06-07T09:00:17.889Z,4676
2019-06-07T09:01:30.091Z,4688
2019-06-07T09:02:42.290Z,4664
2019-06-07T09:03:54.487Z,4716
2019-06-07T09:05:06.694Z,4392
2019-06-07T09:06:18.889Z,3916
2019-06-07T09:07:31.107Z,3860
2019-06-07T09:08:43.301Z,3772
2019-06-07T09:09:55.499Z,3616
2019-06-07T09:11:07.700Z,3644
2019-06-07T09:12:19.900Z,3632
2019-06-07T09:13:32.099Z,3624
2019-06-07T09:14:44.299Z,3564
2019-06-07T09:15:56.499Z,3652
2019-06-07T09:17:08.709Z,3612
2019-06-07T09:18:20.912Z,3720
2019-06-07T09:19:33.109Z,3840
2019-06-07T09:20:45.309Z,4024
2019-06-07T09:21:57.051Z,4032
2019-06-07T09:23:09.706Z,4056
2019-06-07T09:24:21.909Z,4104
2019-06-07T09:25:34.109Z,4204
2019-06-07T09:26:46.308Z,4060
2019-06-07T09:27:58.509Z,3876
2019-06-07T09:29:10.716Z,3764
2019-06-07T09:30:22.918Z,3680
2019-06-07T09:31:35.011Z,3676
2019-06-07T09:32:47.317Z,1500
2019-06-07T09:33:59.051Z,1556
2019-06-07T09:35:11.718Z,1568
2019-06-07T09:36:23.918Z,1508
2019-06-07T09:37:36.118Z,1488
2019-06-07T09:38:48.316Z,1444
2019-06-07T09:40:00.525Z,1408
2019-06-07T09:41:12.727Z,1316
2019-06-07T09:42:24.926Z,1468
2019-06-07T09:43:37.126Z,1560
2019-06-07T09:44:49.033Z,1668
2019-06-07T09:46:01.052Z,1688
2019-06-07T09:47:13.730Z,1512
2019-06-07T09:48:25.927Z,1544
2019-06-07T09:49:38.126Z,1580
2019-06-07T09:50:50.366Z,1548
2019-06-07T09:52:02.535Z,1760
2019-06-07T09:53:14.073Z,1816
2019-06-07T09:54:26.939Z,1632
2019-06-07T09:55:39.134Z,1508
2019-06-07T09:56:51.338Z,1456
2019-06-07T09:58:03.053Z,1408
2019-06-07T09:59:15.737Z,1540
2019-06-07T10:00:27.949Z,1668
2019-06-07T10:01:40.146Z,1696
2019-06-07T10:02:52.346Z,1660
2019-06-07T10:04:04.548Z,1860
2019-06-07T10:05:16.750Z,3336
2019-06-07T10:06:28.950Z,4136
2019-06-07T10:07:41.156Z,3912
2019-06-07T10:08:53.356Z,3812
2019-06-07T10:10:05.558Z,3776
2019-06-07T10:11:17.756Z,3804
2019-06-07T10:12:29.958Z,3840
2019-06-07T10:13:42.158Z,4044
2019-06-07T10:14:54.364Z,4276
2019-06-07T10:16:06.556Z,4312
2019-06-07T10:17:18.760Z,3992
2019-06-07T10:18:30.974Z,3664
2019-06-07T10:19:43.166Z,3592
2019-06-07T10:20:55.362Z,3600
2019-06-07T10:22:07.564Z,3636
2019-06-07T10:23:19.942Z,3668
2019-06-07T10:24:31.096Z,3640
2019-06-07T10:25:44.017Z,3608
2019-06-07T10:26:56.367Z,3660
2019-06-07T10:28:08.564Z,3616
2019-06-07T10:29:20.764Z,3648
2019-06-07T10:30:32.964Z,3656
2019-06-07T10:31:45.176Z,3676
2019-06-07T10:32:57.376Z,3604
2019-06-07T10:34:09.574Z,3620
2019-06-07T10:35:21.774Z,3640
2019-06-07T10:36:33.097Z,3636
2019-06-07T10:37:46.172Z,3652
2019-06-07T10:38:58.374Z,3652
2019-06-07T10:40:10.057Z,3676
2019-06-07T10:41:22.078Z,3604
2019-06-07T10:42:34.984Z,3668
2019-06-07T10:43:47.187Z,3660
2019-06-07T10:44:59.385Z,3636
2019-06-07T10:46:11.584Z,3332
2019-06-07T10:47:23.780Z,3400
2019-06-07T10:48:35.986Z,3424
2019-06-07T10:49:48.182Z,3536
2019-06-07T10:51:00.385Z,3644
2019-06-07T10:52:12.590Z,3736
2019-06-07T10:53:24.792Z,3784
2019-06-07T10:54:36.992Z,3832
2019-06-07T10:55:49.197Z,3508
2019-06-07T10:57:01.392Z,3752
2019-06-07T10:58:13.600Z,3900
2019-06-07T10:59:25.792Z,3892
2019-06-07T11:00:37.991Z,3864
2019-06-07T11:01:50.193Z,3896
2019-06-07T11:03:02.410Z,3900
2019-06-07T11:04:14.602Z,3804
2019-06-07T11:05:26.800Z,3760
2019-06-07T11:06:39.002Z,3724
2019-06-07T11:07:51.204Z,3744
2019-06-07T11:09:03.404Z,3624
2019-06-07T11:10:15.602Z,3636
2019-06-07T11:11:27.804Z,3616
2019-06-07T11:12:40.012Z,3636
2019-06-07T11:13:52.215Z,3724
2019-06-07T11:15:04.413Z,3608
2019-06-07T11:16:16.609Z,3628
2019-06-07T11:17:28.809Z,3612
2019-06-07T11:18:41.010Z,3672
2019-06-07T11:19:53.216Z,3668
2019-06-07T11:21:05.411Z,3628
2019-06-07T11:22:17.616Z,3668
2019-06-07T11:23:29.821Z,3596
2019-06-07T11:24:42.025Z,3660
2019-06-07T11:25:54.225Z,3648
2019-06-07T11:27:06.422Z,3616
2019-06-07T11:29:30.082Z,3540
2019-06-07T11:30:43.022Z,3144
2019-06-07T11:31:55.002Z,3240
2019-06-07T11:33:07.425Z,3464
2019-06-07T11:34:19.623Z,3268
2019-06-07T11:35:31.820Z,3596
2019-06-07T11:36:44.020Z,3492
2019-06-07T11:37:56.212Z,3268
2019-06-07T11:39:08.410Z,3256
2019-06-07T11:40:20.610Z,3232
2019-06-07T11:41:32.812Z,3484
2019-06-07T11:42:45.011Z,3576
2019-06-07T11:43:57.021Z,3528
2019-06-07T11:45:09.412Z,3720
2019-06-07T11:46:21.061Z,3844
2019-06-07T11:47:33.812Z,3828
2019-06-07T11:48:46.011Z,3740
2019-06-07T11:49:58.203Z,3612
2019-06-07T11:51:10.400Z,3736
2019-06-07T11:52:22.603Z,3724
2019-06-07T11:53:34.800Z,3732
2019-06-07T11:54:47.002Z,3624
2019-06-07T11:55:59.200Z,3672
2019-06-07T11:57:11.401Z,3688
2019-06-07T11:58:23.601Z,3764
2019-06-07T11:59:35.080Z,3732
2019-06-07T12:00:48.002Z,3720
2019-06-07T12:02:00.200Z,3608
2019-06-07T12:03:12.403Z,3688
2019-06-07T12:04:24.591Z,3836
2019-06-07T12:05:36.809Z,3852
2019-06-07T12:06:48.989Z,3856
2019-06-07T12:08:01.189Z,3872
2019-06-07T12:09:13.392Z,3920
2019-06-07T12:10:25.591Z,3864
2019-06-07T12:11:37.078Z,3860
2019-06-07T12:12:49.998Z,3876
2019-06-07T12:14:02.189Z,3916
2019-06-07T12:15:14.388Z,3888
2019-06-07T12:16:26.583Z,3980
2019-06-07T12:17:38.781Z,3940
2019-06-07T12:18:50.982Z,4020
2019-06-07T12:20:03.181Z,4036
2019-06-07T12:21:15.038Z,4076
2019-06-07T12:22:27.582Z,4072
2019-06-07T12:23:39.781Z,4156
2019-06-07T12:24:51.977Z,4096
2019-06-07T12:26:04.018Z,4116
2019-06-07T12:27:16.377Z,4184
2019-06-07T12:28:28.569Z,3960
2019-06-07T12:29:40.771Z,4092
2019-06-07T12:30:52.968Z,4112
2019-06-07T12:32:05.017Z,4172
2019-06-07T12:33:17.369Z,4204
2019-06-07T12:34:29.056Z,4260
2019-06-07T12:35:41.769Z,4344
2019-06-07T12:36:53.971Z,4432
2019-06-07T12:38:06.167Z,4400
2019-06-07T12:39:18.369Z,4400
2019-06-07T12:40:30.571Z,4416
2019-06-07T12:41:42.761Z,4464
2019-06-07T12:42:54.961Z,4480
2019-06-07T12:45:19.358Z,4656
2019-06-07T12:46:31.559Z,4500
2019-06-07T12:47:43.758Z,4520
2019-06-07T12:48:55.096Z,4512
2019-06-07T12:50:08.159Z,4564
2019-06-07T12:51:20.360Z,4612
2019-06-07T12:52:32.559Z,4540
2019-06-07T12:53:44.760Z,4408
2019-06-07T12:54:56.951Z,4224
2019-06-07T12:56:09.147Z,4020
2019-06-07T12:57:21.432Z,3976
2019-06-07T12:58:33.548Z,4008
2019-06-07T12:59:45.748Z,3996
2019-06-07T13:00:57.949Z,4108
2019-06-07T13:02:10.147Z,4172
2019-06-07T13:03:22.349Z,4640
2019-06-07T13:04:34.550Z,5108
2019-06-07T13:05:46.075Z,5520
2019-06-07T13:06:58.094Z,5688
2019-06-07T13:08:11.138Z,5688
2019-06-07T13:09:23.338Z,5672
2019-06-07T13:10:35.537Z,5760
2019-06-07T13:11:47.073Z,5640
2019-06-07T13:12:59.938Z,5516
2019-06-07T13:14:12.138Z,5440
2019-06-07T13:15:24.336Z,5376
2019-06-07T13:16:36.005Z,5416
2019-06-07T13:17:48.740Z,5404
2019-06-07T13:19:00.937Z,5412
2019-06-07T13:20:13.132Z,5504
2019-06-07T13:21:25.328Z,5428
2019-06-07T13:22:37.524Z,5436
2019-06-07T13:23:49.726Z,5432
2019-06-07T13:25:01.928Z,5348
2019-06-07T13:26:14.126Z,5276
2019-06-07T13:27:26.326Z,5192
2019-06-07T13:28:38.530Z,5412
2019-06-07T13:29:50.727Z,5468
2019-06-07T13:31:02.928Z,5588
2019-06-07T13:32:15.121Z,5648
2019-06-07T13:33:27.031Z,5680
2019-06-07T13:34:39.517Z,5528
2019-06-07T13:35:51.719Z,5600
2019-06-07T13:37:03.917Z,5944
2019-06-07T13:38:16.120Z,5908
2019-06-07T13:39:28.316Z,5956
2019-06-07T13:40:40.532Z,5932
2019-06-07T13:41:52.728Z,5792
2019-06-07T13:43:04.917Z,5516
2019-06-07T13:44:17.107Z,5648
2019-06-07T13:45:29.303Z,5304
2019-06-07T13:46:41.507Z,4992
2019-06-07T13:47:53.710Z,4772
2019-06-07T13:49:05.090Z,4540
2019-06-07T13:50:18.107Z,5380
2019-06-07T13:51:30.307Z,6640
2019-06-07T13:52:42.537Z,7444
2019-06-07T13:53:54.707Z,7508
2019-06-07T13:55:06.905Z,7508
2019-06-07T13:56:19.107Z,7564
2019-06-07T13:57:31.296Z,7332
2019-06-07T13:58:43.495Z,6848
2019-06-07T13:59:55.069Z,4032
2019-06-07T14:01:07.897Z,3756
2019-06-07T14:02:20.133Z,6104
2019-06-07T14:03:32.298Z,6852
2019-06-07T14:04:44.498Z,7328
2019-06-07T14:05:56.697Z,7636
2019-06-07T14:07:08.895Z,7724
2019-06-07T14:08:21.095Z,7752
2019-06-07T14:09:33.028Z,7608
2019-06-07T14:10:45.490Z,7532
2019-06-07T14:11:57.691Z,7460
2019-06-07T14:13:09.887Z,7588
2019-06-07T14:14:22.087Z,7628
2019-06-07T14:15:34.287Z,7512
2019-06-07T14:16:46.488Z,7684
2019-06-07T14:17:58.688Z,7764
2019-06-07T14:19:10.088Z,7820
2019-06-07T14:20:23.077Z,8016
2019-06-07T14:21:35.276Z,8060
2019-06-07T14:22:47.478Z,8060
2019-06-07T14:23:59.067Z,8432
2019-06-07T14:25:11.873Z,8596
2019-06-07T14:26:24.077Z,9136
2019-06-07T14:27:36.274Z,9584
2019-06-07T14:28:48.477Z,8324
2019-06-07T14:30:00.067Z,9140
2019-06-07T14:31:12.875Z,9392
2019-06-07T14:32:25.064Z,11584
2019-06-07T14:33:37.026Z,9396
2019-06-07T14:34:49.467Z,11112
2019-06-07T14:36:01.695Z,8992
2019-06-07T14:37:13.869Z,8340
2019-06-07T14:38:26.069Z,8320
2019-06-07T14:39:38.269Z,6448
2019-06-07T14:40:50.468Z,13548
2019-06-07T14:43:14.859Z,0
2019-06-07T14:44:27.059Z,15680
2019-06-07T14:45:39.258Z,13676
2019-06-07T14:46:51.457Z,14952
2019-06-07T14:48:03.657Z,4520
2019-06-07T14:49:15.857Z,8676
2019-06-07T14:50:28.055Z,9648
2019-06-07T14:51:40.265Z,7740
2019-06-07T14:52:52.458Z,8256
2019-06-07T14:54:04.655Z,6872
2019-06-07T14:55:16.847Z,8948
2019-06-07T14:56:29.049Z,5836
2019-06-07T14:57:41.253Z,9420
2019-06-07T14:58:53.450Z,6244
2019-06-07T15:00:05.647Z,8644
2019-06-07T15:01:17.863Z,6348
2019-06-07T15:02:30.049Z,6464
2019-06-07T15:03:42.248Z,6400
2019-06-07T15:04:54.440Z,7368
2019-06-07T15:06:06.636Z,5084
2019-06-07T15:07:18.844Z,5248
2019-06-07T15:08:31.038Z,5500
2019-06-07T15:09:43.241Z,4328
2019-06-07T15:10:55.441Z,4192
2019-06-07T15:12:07.643Z,4148
2019-06-07T15:13:19.828Z,2992
2019-06-07T15:14:32.031Z,2456
2019-06-07T15:15:44.236Z,5004
2019-06-07T15:16:56.042Z,1384
2019-06-07T15:18:08.631Z,2900
2019-06-07T15:19:20.829Z,2912
2019-06-07T15:20:33.031Z,3124
2019-06-07T15:21:45.232Z,2356
2019-06-07T15:22:57.430Z,1708
2019-06-07T15:24:09.619Z,1576
2019-06-07T15:25:21.830Z,1492
2019-06-07T15:26:34.002Z,1644
2019-06-07T15:27:46.226Z,1376
2019-06-07T15:28:58.420Z,1396
2019-06-07T15:30:10.624Z,1376
2019-06-07T15:31:22.825Z,1448
2019-06-07T15:32:35.001Z,1232
2019-06-07T15:33:47.221Z,1664
2019-06-07T15:34:59.418Z,1228
2019-06-07T15:36:11.620Z,1204
2019-06-07T15:37:23.822Z,1296
2019-06-07T15:38:36.012Z,1444
2019-06-07T15:39:48.213Z,1268
2019-06-07T15:41:00.413Z,1252
2019-06-07T15:42:12.611Z,1144
2019-06-07T15:43:24.814Z,1212
2019-06-07T15:44:37.014Z,1156
2019-06-07T15:45:49.212Z,1192
2019-06-07T15:47:01.413Z,1124
2019-06-07T15:48:13.610Z,1172
2019-06-07T15:49:25.814Z,1128
2019-06-07T15:50:38.004Z,1164
2019-06-07T15:51:50.208Z,1180
2019-06-07T15:53:02.402Z,1172
2019-06-07T15:54:14.603Z,1184
2019-06-07T15:55:26.802Z,1160
2019-06-07T15:56:39.004Z,1176
2019-06-07T15:57:51.202Z,1164
2019-06-07T15:59:03.403Z,1168
2019-06-07T16:00:15.606Z,1184
2019-06-07T16:01:27.802Z,1300
2019-06-07T16:02:40.008Z,1172
2019-06-07T16:03:52.191Z,1156
2019-06-07T16:05:04.392Z,1144
2019-06-07T16:06:16.592Z,1212
2019-06-07T16:07:28.795Z,1148
2019-06-07T16:08:40.099Z,1148
2019-06-07T16:09:53.196Z,1180
2019-06-07T16:11:05.039Z,1128
2019-06-07T16:12:17.595Z,1144
2019-06-07T16:13:29.796Z,1116
2019-06-07T16:14:41.983Z,1132
2019-06-07T16:15:54.186Z,1164
2019-06-07T16:17:06.382Z,1132
2019-06-07T16:18:18.586Z,1148
2019-06-07T16:19:30.784Z,1104
2019-06-07T16:20:42.984Z,1088
2019-06-07T16:21:55.183Z,1252
2019-06-07T16:23:07.385Z,1148
2019-06-07T16:24:19.059Z,1084
2019-06-07T16:26:43.097Z,1104
2019-06-07T16:27:56.176Z,1088